Aérodrome :
LOGIN :

S'inscrire | Disclaimer

   EN    FR    IT 

 










Légende :    VFR   VFR Marginal   IFR   IFR Intensif   IFR Très Intensif
Visi : 
Plafond : 
>= 8 km
>= 3000ft
5 à 8 km
1000 à 3000 ft
1500m à 5 km
500 à 1000 ft
800 à 1500m
200 à 500 ft
< 800m
< 200 ft
Symboles :   Orages  Brouillard  Fortes neiges  Fortes précipitations  Vent > 20 kt
SIGMETs :   Divers  Orages  Givrage  Turbulence  Onde Orograph.  Cendres Volcan.







- Altitude de l'aérodrome : 614 ft
- Code IATA : CRL


EBCI - Charleroi

DERNIER METAR :
  • 180650Z 09005KT 060V120 5000 -RADZ FEW002 SCT004 BKN020 14/14 Q1004 TEMPO 1200 RADZ BKN002

METARs EXPIRÉS :
  • 180620Z 08005KT 050V110 3000 RADZ SCT001 BKN003 BKN020 14/14 Q1005 TEMPO 1200 RADZ BKN002
  • 180550Z VRB01KT 3000 RADZ SCT002 BKN004 BKN020 14/14 Q1005 TEMPO 1200 RADZ BKN002
  • 180520Z 33003KT 280V010 2800 RADZ FEW002 BKN005 BKN020 14/14 Q1006 TEMPO 1200 RADZ BKN002
  • 180450Z 31003KT 5000 -RA SCT005 BKN012 BKN020 15/14 Q1006 TEMPO 2000 RADZ SCT002 BKN004
  • 180420Z 15003KT 6000 -RA FEW005 SCT015 BKN030 14/14 Q1006 BECMG 4000 RADZ SCT004 BKN012

TAF TAF EBCI
Valide du 18 à 06h jusqu'au 19 à 12h UTC


180500Z 1806/1912 11004KT 9999 SCT007 BKN012
TEMPO 1806/1813 3500 -RA -RADZ SCT004 BKN006
PROB30
TEMPO 1806/1809 1800 RA BKN003
BECMG 1807/1809 21015G25KT
BECMG 1811/1813 26012KT
BECMG 1813/1815 SCT012 SCT020
Pas de NOTAMs connus pour ce terrain.



MET'MAP, la Météo Aéronautique d'un coup d'oeil ! - Copyright ORBIFLY Décembre 2007 - Disclaimer

ORBIFLY MET'MAP TEAM :

Programmation & Développement : Alexandra Zaïnal
Conception & Développement : Baudouin d'Aumeries
Co-Programmation & Développement : Marc-Olivier Méhu
Soutien technique & logistique : Manuel Goepfert

Contact : metmap@orbifly.com




SOURCES & CREDITS :

   NOAA